createdAt,value
2023-03-20T00:02:05.620Z,38.00
2023-03-20T00:04:32.693Z,40.90
2023-03-20T00:06:59.466Z,37.55
2023-03-20T00:09:26.711Z,36.65
2023-03-20T00:11:55.627Z,40.15
2023-03-20T00:14:24.839Z,40.35
2023-03-20T00:16:52.090Z,38.53
2023-03-20T00:19:27.979Z,38.72
2023-03-20T00:21:55.566Z,39.15
2023-03-20T00:24:23.179Z,35.65
2023-03-20T00:26:51.209Z,39.67
2023-03-20T00:29:30.871Z,39.50
2023-03-20T00:31:58.604Z,37.20
2023-03-20T00:34:29.550Z,40.25
2023-03-20T00:36:58.114Z,37.13
2023-03-20T00:39:26.273Z,37.97
2023-03-20T00:42:00.745Z,38.30
2023-03-20T00:44:48.158Z,39.20
2023-03-20T00:47:24.329Z,41.08
2023-03-20T00:49:53.016Z,37.53
2023-03-20T00:52:21.628Z,37.25
2023-03-20T00:54:48.430Z,40.05
2023-03-20T00:57:26.627Z,39.33
2023-03-20T01:00:07.864Z,39.75
2023-03-20T01:02:34.796Z,40.00
2023-03-20T01:05:02.262Z,41.03
2023-03-20T01:07:29.094Z,39.70
2023-03-20T01:09:56.257Z,43.90
2023-03-20T01:12:24.290Z,40.55
2023-03-20T01:14:54.725Z,41.40
2023-03-20T01:17:23.194Z,42.72
2023-03-20T01:19:50.256Z,36.38
2023-03-20T01:22:19.739Z,39.17
2023-03-20T01:24:47.448Z,39.92
2023-03-20T01:27:16.623Z,40.75
2023-03-20T01:29:43.679Z,37.80
2023-03-20T01:32:15.056Z,36.00
2023-03-20T01:34:41.987Z,38.53
2023-03-20T01:37:23.159Z,37.80
2023-03-20T01:39:49.950Z,43.63
2023-03-20T01:42:17.226Z,37.47
2023-03-20T01:44:45.802Z,39.10
2023-03-20T01:47:18.361Z,36.88
2023-03-20T01:50:13.498Z,40.75
2023-03-20T01:52:40.359Z,38.45
2023-03-20T01:55:07.244Z,41.33
2023-03-20T01:57:34.785Z,42.22
2023-03-20T02:00:10.591Z,43.08
2023-03-20T02:02:39.240Z,39.17
2023-03-20T02:05:10.523Z,39.28
2023-03-20T02:07:39.271Z,41.38
2023-03-20T02:10:10.872Z,39.88
2023-03-20T02:12:38.964Z,41.92
2023-03-20T02:15:07.585Z,46.88
2023-03-20T02:17:35.633Z,41.42
2023-03-20T02:20:16.954Z,38.53
2023-03-20T02:23:10.506Z,40.33
2023-03-20T02:26:06.755Z,40.80
2023-03-20T02:28:51.508Z,41.28
2023-03-20T02:31:37.652Z,42.85
2023-03-20T02:34:41.233Z,43.15
2023-03-20T02:37:42.115Z,42.53
2023-03-20T02:40:27.485Z,40.97
2023-03-20T02:43:17.165Z,37.30
2023-03-20T02:45:47.041Z,36.95
2023-03-20T02:48:33.513Z,38.30
2023-03-20T02:51:27.491Z,39.70
2023-03-20T02:54:15.841Z,40.30
2023-03-20T02:57:09.181Z,38.30
2023-03-20T02:59:43.775Z,38.60
2023-03-20T03:02:18.706Z,38.40
2023-03-20T03:04:57.012Z,41.65
2023-03-20T03:07:29.813Z,38.38
2023-03-20T03:10:19.881Z,36.20
2023-03-20T03:12:50.233Z,40.22
2023-03-20T03:15:23.022Z,40.78
2023-03-20T03:17:51.366Z,37.05
2023-03-20T03:20:32.460Z,40.72
2023-03-20T03:22:59.911Z,42.33
2023-03-20T03:25:30.583Z,41.60
2023-03-20T03:28:04.354Z,41.85
2023-03-20T03:30:35.812Z,38.20
2023-03-20T03:33:26.587Z,38.15
2023-03-20T03:36:06.492Z,39.30
2023-03-20T03:38:52.699Z,40.30
2023-03-20T03:41:25.299Z,40.97
2023-03-20T03:44:10.854Z,41.17
2023-03-20T03:46:56.267Z,38.55
2023-03-20T03:49:36.596Z,39.67
2023-03-20T03:52:12.088Z,39.25
2023-03-20T03:54:53.359Z,40.17
2023-03-20T03:57:27.416Z,39.22
2023-03-20T04:02:24.297Z,41.03
2023-03-20T04:04:53.732Z,43.80
2023-03-20T04:07:21.472Z,38.58
2023-03-20T04:09:49.470Z,43.38
2023-03-20T04:12:35.896Z,45.50
2023-03-20T04:15:03.731Z,36.92
2023-03-20T04:17:32.556Z,39.55
2023-03-20T04:19:59.797Z,39.15
2023-03-20T04:22:26.651Z,32.95
2023-03-20T04:24:53.729Z,38.78
2023-03-20T04:27:22.914Z,38.97
2023-03-20T04:29:49.785Z,34.17
2023-03-20T04:32:17.151Z,36.17
2023-03-20T04:34:43.840Z,39.33
2023-03-20T04:37:10.719Z,33.88
2023-03-20T04:39:38.317Z,42.20
2023-03-20T04:42:06.249Z,42.30
2023-03-20T04:44:32.969Z,38.85
2023-03-20T04:47:00.443Z,35.15
2023-03-20T04:49:30.400Z,41.38
2023-03-20T04:51:57.106Z,42.85
2023-03-20T04:54:25.311Z,38.33
2023-03-20T04:56:52.126Z,34.92
2023-03-20T04:59:26.599Z,37.72
2023-03-20T05:01:53.567Z,36.70
2023-03-20T05:04:20.452Z,35.95
2023-03-20T05:06:49.229Z,35.17
2023-03-20T05:09:17.298Z,33.22
2023-03-20T05:11:44.025Z,34.42
2023-03-20T05:14:12.146Z,35.92
2023-03-20T05:16:39.578Z,32.50
2023-03-20T05:19:06.589Z,33.10
2023-03-20T05:21:34.169Z,35.70
2023-03-20T05:24:01.540Z,34.20
2023-03-20T05:26:29.367Z,35.50
2023-03-20T05:28:56.211Z,36.25
2023-03-20T05:31:23.168Z,34.83
2023-03-20T05:33:52.707Z,34.47
2023-03-20T05:36:19.432Z,33.78
2023-03-20T05:38:46.969Z,34.35
2023-03-20T05:41:13.709Z,29.33
2023-03-20T05:43:40.400Z,27.92
2023-03-20T05:46:07.505Z,30.75
2023-03-20T05:48:34.347Z,28.00
2023-03-20T05:51:02.412Z,29.17
2023-03-20T05:53:29.279Z,28.48
2023-03-20T05:55:56.487Z,28.35
2023-03-20T05:58:23.532Z,38.70
2023-03-20T06:00:50.578Z,29.20
2023-03-20T06:03:17.387Z,29.92
2023-03-20T06:05:44.868Z,26.95
2023-03-20T06:08:11.830Z,31.00
2023-03-20T06:10:39.077Z,29.27
2023-03-20T06:13:05.748Z,23.13
2023-03-20T06:15:34.089Z,26.85
2023-03-20T06:18:01.414Z,25.80
2023-03-20T06:20:28.208Z,23.13
2023-03-20T06:22:57.283Z,19.38
2023-03-20T06:25:24.797Z,21.77
2023-03-20T06:27:52.329Z,21.50
2023-03-20T06:30:19.542Z,24.42
2023-03-20T06:32:51.401Z,20.00
2023-03-20T06:35:23.435Z,21.95
2023-03-20T06:37:50.957Z,20.42
2023-03-20T06:40:18.889Z,20.27
2023-03-20T06:42:46.118Z,21.55
2023-03-20T06:45:13.360Z,18.65
2023-03-20T06:47:40.781Z,20.13
2023-03-20T06:50:09.036Z,22.13
2023-03-20T06:52:36.168Z,20.98
2023-03-20T06:55:03.365Z,22.58
2023-03-20T06:57:30.972Z,21.05
2023-03-20T06:59:59.456Z,20.70
2023-03-20T07:02:26.583Z,19.73
2023-03-20T07:04:53.848Z,19.00
2023-03-20T07:07:22.373Z,19.08
2023-03-20T07:09:49.637Z,19.92
2023-03-20T07:12:19.981Z,19.30
2023-03-20T07:14:47.305Z,18.45
2023-03-20T07:17:14.564Z,15.85
2023-03-20T07:19:41.826Z,14.73
2023-03-20T07:22:18.081Z,15.98
2023-03-20T07:24:47.366Z,14.85
2023-03-20T07:27:14.752Z,15.27
2023-03-20T07:29:44.217Z,17.63
2023-03-20T07:32:11.761Z,14.38
2023-03-20T07:34:40.233Z,16.35
2023-03-20T07:37:08.463Z,16.92
2023-03-20T07:39:35.925Z,16.50
2023-03-20T07:42:04.311Z,17.30
2023-03-20T07:44:32.609Z,16.48
2023-03-20T07:46:59.707Z,20.58
2023-03-20T07:49:27.318Z,15.70
2023-03-20T07:51:57.629Z,20.48
2023-03-20T07:54:25.155Z,17.58
2023-03-20T07:56:53.351Z,14.52
2023-03-20T07:59:20.639Z,16.92
2023-03-20T08:01:47.737Z,15.50
2023-03-20T08:04:19.458Z,13.63
2023-03-20T08:06:47.173Z,12.15
2023-03-20T08:09:14.390Z,12.48
2023-03-20T08:11:41.641Z,13.13
2023-03-20T08:14:08.980Z,14.20
2023-03-20T08:16:37.318Z,14.82
2023-03-20T08:19:05.454Z,12.65
2023-03-20T08:21:33.293Z,8.90
2023-03-20T08:24:00.515Z,9.60
2023-03-20T08:26:27.476Z,10.63
2023-03-20T08:28:54.210Z,9.25
2023-03-20T08:31:21.036Z,7.35
2023-03-20T08:33:48.141Z,8.55
2023-03-20T08:36:16.183Z,15.32
2023-03-20T08:38:43.130Z,10.18
2023-03-20T08:41:10.307Z,8.23
2023-03-20T08:43:37.132Z,11.60
2023-03-20T08:46:04.579Z,8.05
2023-03-20T08:48:31.395Z,12.02
2023-03-20T08:50:58.094Z,10.15
2023-03-20T08:53:26.697Z,8.82
2023-03-20T08:55:54.401Z,10.15
2023-03-20T08:58:22.485Z,9.38
2023-03-20T09:00:50.636Z,10.65
2023-03-20T09:03:19.740Z,12.50
2023-03-20T09:05:48.885Z,9.98
2023-03-20T09:08:16.592Z,11.55
2023-03-20T09:10:43.721Z,10.25
2023-03-20T09:13:26.197Z,12.63
2023-03-20T09:15:55.504Z,9.18
2023-03-20T09:18:22.924Z,10.10
2023-03-20T09:20:50.683Z,11.02
2023-03-20T09:23:18.109Z,9.50
2023-03-20T09:25:45.145Z,10.82
2023-03-20T09:28:12.025Z,12.80
2023-03-20T09:30:39.377Z,11.50
2023-03-20T09:33:06.611Z,11.18
2023-03-20T09:35:43.667Z,12.52
2023-03-20T09:38:12.304Z,14.35
2023-03-20T09:40:55.936Z,11.45
2023-03-20T09:43:44.594Z,11.57
2023-03-20T09:46:42.330Z,10.98
2023-03-20T09:49:41.776Z,13.00
2023-03-20T09:52:25.368Z,12.85
2023-03-20T09:54:57.575Z,17.70
2023-03-20T09:57:28.262Z,11.77
2023-03-20T10:00:02.872Z,12.13
2023-03-20T10:02:47.782Z,9.68
2023-03-20T10:05:18.591Z,11.90
2023-03-20T10:07:45.969Z,10.60
2023-03-20T10:10:15.453Z,8.73
2023-03-20T10:13:24.062Z,10.05
2023-03-20T10:15:59.068Z,8.18
2023-03-20T10:18:28.989Z,7.20
2023-03-20T10:20:56.305Z,8.05
2023-03-20T10:23:36.948Z,8.15
2023-03-20T10:26:09.186Z,7.97
2023-03-20T10:28:46.456Z,7.95
2023-03-20T10:31:30.182Z,6.90
2023-03-20T10:34:09.209Z,6.72
2023-03-20T10:36:47.899Z,8.40
2023-03-20T10:39:22.228Z,8.43
2023-03-20T10:41:54.909Z,4.97
2023-03-20T10:44:32.929Z,6.10
2023-03-20T10:47:02.440Z,5.15
2023-03-20T10:49:41.914Z,7.88
2023-03-20T10:52:16.410Z,5.82
2023-03-20T10:54:48.262Z,6.57
2023-03-20T10:57:24.420Z,6.90
2023-03-20T10:59:52.746Z,4.38
2023-03-20T11:02:23.307Z,6.78
2023-03-20T11:04:50.583Z,6.47
2023-03-20T11:07:24.441Z,9.57
2023-03-20T11:10:17.436Z,6.47
2023-03-20T11:12:49.163Z,6.72
2023-03-20T11:15:33.785Z,8.23
2023-03-20T11:18:15.855Z,7.40
2023-03-20T11:20:50.849Z,6.65
2023-03-20T11:23:35.230Z,6.30
2023-03-20T11:28:43.432Z,5.13
2023-03-20T11:31:13.702Z,5.72
2023-03-20T11:33:44.522Z,7.03
2023-03-20T11:36:33.238Z,5.20
2023-03-20T11:39:11.757Z,8.10
2023-03-20T11:41:45.805Z,7.15
2023-03-20T11:47:12.562Z,8.38
2023-03-20T11:49:47.924Z,7.07
2023-03-20T11:52:20.191Z,5.70
2023-03-20T11:54:50.960Z,7.72
2023-03-20T11:57:30.390Z,5.82
2023-03-20T11:59:58.705Z,8.05
2023-03-20T12:02:27.371Z,4.78
2023-03-20T12:04:59.027Z,3.72
2023-03-20T12:07:31.492Z,5.55
2023-03-20T12:10:14.031Z,7.88
2023-03-20T12:12:48.424Z,5.55
2023-03-20T12:15:35.671Z,4.75
2023-03-20T12:18:34.400Z,2.75
2023-03-20T12:21:28.676Z,3.35
2023-03-20T12:23:58.411Z,7.68
2023-03-20T12:26:37.759Z,5.00
2023-03-20T12:29:10.412Z,4.70
2023-03-20T12:31:48.216Z,6.03
2023-03-20T12:34:23.839Z,6.93
2023-03-20T12:37:00.137Z,3.25
2023-03-20T12:39:41.462Z,5.78
2023-03-20T12:42:09.524Z,6.60
2023-03-20T12:44:38.772Z,6.97
2023-03-20T12:47:20.384Z,5.80
2023-03-20T12:50:20.120Z,8.38
2023-03-20T12:53:02.646Z,4.57
2023-03-20T12:56:00.628Z,5.10
2023-03-20T12:58:48.350Z,6.38
2023-03-20T13:01:28.539Z,5.03
2023-03-20T13:04:21.490Z,6.85
2023-03-20T13:06:55.858Z,3.03
2023-03-20T13:09:57.196Z,6.35
2023-03-20T13:12:32.825Z,6.30
2023-03-20T13:15:30.681Z,6.88
2023-03-20T13:18:41.122Z,5.53
2023-03-20T13:21:15.813Z,8.82
2023-03-20T13:23:54.404Z,5.10
2023-03-20T13:26:38.712Z,5.68
2023-03-20T13:29:27.506Z,7.65
2023-03-20T13:32:19.173Z,8.18
2023-03-20T13:35:21.280Z,4.10
2023-03-20T13:37:58.986Z,10.48
2023-03-20T13:40:38.012Z,6.53
2023-03-20T13:43:27.306Z,7.45
2023-03-20T13:46:08.813Z,6.72
2023-03-20T13:48:40.705Z,4.43
2023-03-20T13:51:18.234Z,5.47
2023-03-20T13:54:03.127Z,5.78
2023-03-20T13:56:48.659Z,6.97
2023-03-20T13:59:30.873Z,5.88
2023-03-20T14:02:19.057Z,4.82
2023-03-20T14:04:53.114Z,6.70
2023-03-20T14:09:57.480Z,6.93
2023-03-20T14:12:26.493Z,8.73
2023-03-20T14:14:57.330Z,10.52
2023-03-20T14:17:31.127Z,9.60
2023-03-20T14:20:09.590Z,5.18
2023-03-20T14:22:40.910Z,4.82
2023-03-20T14:25:18.429Z,7.28
2023-03-20T14:27:59.456Z,7.35
2023-03-20T14:30:32.109Z,10.23
2023-03-20T14:33:07.840Z,6.35
2023-03-20T14:35:42.687Z,8.65
2023-03-20T14:38:23.736Z,4.13
2023-03-20T14:40:56.482Z,5.85
2023-03-20T14:43:32.354Z,8.85
2023-03-20T14:46:22.376Z,8.23
2023-03-20T14:48:53.329Z,6.75
2023-03-20T14:51:33.083Z,7.93
2023-03-20T14:54:21.574Z,9.68
2023-03-20T14:56:53.047Z,7.70
2023-03-20T14:59:24.401Z,9.77
2023-03-20T15:02:01.424Z,5.50
2023-03-20T15:04:42.321Z,7.00
2023-03-20T15:07:12.122Z,11.35
2023-03-20T15:09:44.815Z,5.97
2023-03-20T15:12:21.359Z,7.63
2023-03-20T15:14:55.219Z,4.82
2023-03-20T15:17:27.219Z,8.85
2023-03-20T15:20:18.486Z,4.90
2023-03-20T15:22:52.663Z,9.70
2023-03-20T15:25:23.212Z,5.00
2023-03-20T15:27:52.098Z,6.80
2023-03-20T15:30:23.128Z,6.63
2023-03-20T15:32:54.921Z,8.10
2023-03-20T15:35:25.994Z,8.95
2023-03-20T15:37:56.320Z,7.53
2023-03-20T15:40:40.138Z,7.45
2023-03-20T15:43:20.081Z,6.93
2023-03-20T15:45:49.820Z,10.45
2023-03-20T15:48:20.622Z,9.43
2023-03-20T15:50:56.408Z,6.55
2023-03-20T15:53:38.195Z,9.30
2023-03-20T15:56:17.879Z,9.02
2023-03-20T15:58:48.029Z,5.65
2023-03-20T16:01:20.173Z,7.90
2023-03-20T16:03:48.380Z,9.00
2023-03-20T16:06:21.031Z,7.32
2023-03-20T16:08:58.532Z,4.65
2023-03-20T16:11:25.430Z,7.03
2023-03-20T16:13:56.049Z,8.32
2023-03-20T16:16:24.659Z,6.38
2023-03-20T16:18:51.826Z,3.40
2023-03-20T16:21:21.794Z,5.22
2023-03-20T16:23:52.084Z,6.78
2023-03-20T16:26:22.005Z,8.55
2023-03-20T16:28:55.358Z,6.70
2023-03-20T16:31:36.022Z,6.63
2023-03-20T16:34:09.087Z,6.68
2023-03-20T16:36:38.029Z,8.93
2023-03-20T16:39:10.867Z,7.35
2023-03-20T16:41:41.108Z,9.57
2023-03-20T16:44:15.558Z,8.82
2023-03-20T16:47:00.152Z,8.70
2023-03-20T16:49:29.790Z,6.57
2023-03-20T16:52:02.666Z,8.10
2023-03-20T16:54:34.649Z,5.80
2023-03-20T16:57:04.087Z,7.03
2023-03-20T16:59:30.968Z,11.18
2023-03-20T17:02:01.731Z,10.82
2023-03-20T17:04:34.883Z,9.88
2023-03-20T17:07:12.584Z,11.05
2023-03-20T17:09:53.719Z,7.95
2023-03-20T17:12:20.602Z,6.93
2023-03-20T17:14:47.409Z,7.93
2023-03-20T17:17:23.520Z,5.07
2023-03-20T17:19:50.788Z,7.15
2023-03-20T17:22:24.136Z,8.85
2023-03-20T17:24:53.754Z,8.88
2023-03-20T17:27:22.138Z,8.77
2023-03-20T17:29:52.177Z,8.45
2023-03-20T17:32:23.941Z,8.70
2023-03-20T17:34:51.503Z,9.43
2023-03-20T17:37:25.134Z,7.85
2023-03-20T17:39:55.530Z,9.00
2023-03-20T17:42:26.695Z,10.70
2023-03-20T17:44:53.724Z,7.50
2023-03-20T17:47:29.395Z,7.95
2023-03-20T17:49:56.178Z,8.13
2023-03-20T17:52:26.789Z,6.70
2023-03-20T17:54:53.586Z,4.15
2023-03-20T17:57:35.043Z,10.13
2023-03-20T18:00:06.530Z,8.75
2023-03-20T18:02:36.447Z,9.02
2023-03-20T18:05:03.301Z,9.95
2023-03-20T18:07:31.622Z,7.85
2023-03-20T18:09:59.654Z,5.05
2023-03-20T18:12:26.406Z,7.93
2023-03-20T18:14:53.206Z,6.18
2023-03-20T18:17:19.942Z,8.90
2023-03-20T18:19:46.645Z,7.35
2023-03-20T18:22:14.537Z,9.02
2023-03-20T18:24:45.407Z,8.90
2023-03-20T18:27:12.339Z,5.95
2023-03-20T18:29:39.114Z,6.85
2023-03-20T18:32:08.983Z,7.57
2023-03-20T18:34:35.720Z,5.20
2023-03-20T18:37:05.732Z,5.57
2023-03-20T18:39:32.579Z,5.30
2023-03-20T18:42:00.050Z,5.10
2023-03-20T18:44:27.892Z,6.75
2023-03-20T18:46:54.596Z,7.63
2023-03-20T18:49:22.306Z,5.32
2023-03-20T18:51:49.748Z,8.02
2023-03-20T18:54:18.618Z,9.02
2023-03-20T18:56:50.778Z,7.50
2023-03-20T18:59:19.169Z,7.05
2023-03-20T19:01:46.273Z,8.88
2023-03-20T19:04:13.160Z,9.27
2023-03-20T19:06:41.150Z,7.78
2023-03-20T19:09:11.605Z,6.53
2023-03-20T19:11:39.963Z,7.65
2023-03-20T19:14:06.717Z,6.05
2023-03-20T19:16:36.078Z,7.28
2023-03-20T19:19:06.830Z,9.38
2023-03-20T19:21:35.166Z,7.70
2023-03-20T19:24:04.788Z,11.75
2023-03-20T19:26:33.887Z,7.40
2023-03-20T19:29:08.705Z,6.72
2023-03-20T19:31:37.474Z,9.43
2023-03-20T19:34:04.341Z,8.90
2023-03-20T19:36:37.179Z,8.20
2023-03-20T19:39:06.551Z,10.52
2023-03-20T19:41:35.105Z,11.85
2023-03-20T19:44:06.211Z,10.40
2023-03-20T19:46:42.395Z,11.95
2023-03-20T19:49:19.665Z,12.27
2023-03-20T19:51:47.961Z,11.65
2023-03-20T19:54:16.448Z,9.20
2023-03-20T19:56:45.450Z,9.98
2023-03-20T19:59:15.999Z,8.40
2023-03-20T20:01:43.551Z,9.88
2023-03-20T20:04:10.670Z,8.60
2023-03-20T20:06:39.827Z,13.32
2023-03-20T20:09:08.396Z,11.25
2023-03-20T20:11:35.831Z,13.00
2023-03-20T20:14:08.703Z,11.82
2023-03-20T20:16:37.520Z,20.02
2023-03-20T20:19:04.658Z,22.02
2023-03-20T20:24:24.149Z,19.75
2023-03-20T20:26:56.761Z,15.63
2023-03-20T20:29:29.198Z,12.25
2023-03-20T20:31:57.000Z,12.07
2023-03-20T20:35:30.701Z,12.32
2023-03-20T20:40:04.461Z,8.05
2023-03-20T20:42:31.456Z,9.95
2023-03-20T20:44:58.204Z,9.23
2023-03-20T20:47:24.974Z,6.70
2023-03-20T20:49:52.099Z,9.32
2023-03-20T20:52:18.950Z,9.88
2023-03-20T20:54:45.842Z,5.05
2023-03-20T20:57:18.107Z,9.05
2023-03-20T20:59:45.854Z,10.82
2023-03-20T21:02:16.014Z,9.32
2023-03-20T21:04:43.828Z,6.05
2023-03-20T21:07:12.864Z,5.75
2023-03-20T21:09:40.576Z,7.13
2023-03-20T21:12:10.527Z,7.13
2023-03-20T21:14:37.903Z,13.57
2023-03-20T21:17:06.137Z,11.23
2023-03-20T21:19:37.977Z,7.97
2023-03-20T21:22:05.823Z,9.32
2023-03-20T21:24:34.683Z,8.73
2023-03-20T21:27:04.585Z,9.43
2023-03-20T21:29:31.712Z,7.72
2023-03-20T21:31:58.616Z,7.00
2023-03-20T21:34:26.088Z,6.45
2023-03-20T21:36:53.074Z,7.35
2023-03-20T21:39:21.180Z,9.30
2023-03-20T21:41:47.887Z,8.55
2023-03-20T21:44:24.524Z,9.43
2023-03-20T21:51:28.321Z,8.23
2023-03-20T21:53:12.465Z,6.57
2023-03-20T21:58:56.430Z,9.85
2023-03-20T22:01:42.107Z,5.75
2023-03-20T22:12:56.192Z,10.77
2023-03-20T22:21:16.083Z,12.02
2023-03-20T22:29:39.376Z,9.50
2023-03-20T22:32:35.214Z,7.28
2023-03-20T22:38:21.889Z,8.38
2023-03-20T22:40:51.808Z,9.43
2023-03-20T22:43:57.297Z,6.53
2023-03-20T22:46:07.560Z,13.57
2023-03-20T22:48:34.814Z,6.53
2023-03-20T22:51:01.580Z,10.57
2023-03-20T22:53:28.542Z,8.18
2023-03-20T22:55:55.421Z,11.88
2023-03-20T22:58:22.286Z,6.97
2023-03-20T23:00:48.970Z,9.80
2023-03-20T23:03:33.390Z,7.82
2023-03-20T23:06:09.441Z,8.18
2023-03-20T23:08:48.738Z,7.47
2023-03-20T23:11:18.150Z,179.15
2023-03-20T23:13:45.636Z,28.75
2023-03-20T23:16:13.042Z,10.35
2023-03-20T23:18:39.773Z,8.52
2023-03-20T23:21:06.838Z,10.40
2023-03-20T23:23:34.690Z,7.55
2023-03-20T23:26:10.642Z,7.95
2023-03-20T23:28:39.056Z,10.88
2023-03-20T23:31:20.676Z,8.73
2023-03-20T23:33:50.073Z,7.55
2023-03-20T23:36:34.546Z,14.15
2023-03-20T23:39:02.927Z,9.70
2023-03-20T23:41:57.633Z,6.88
2023-03-20T23:44:17.605Z,6.97
2023-03-20T23:46:46.953Z,9.63
2023-03-20T23:49:14.720Z,9.80
2023-03-20T23:51:46.371Z,8.50
2023-03-20T23:54:17.013Z,12.02
2023-03-20T23:56:43.822Z,8.55
2023-03-20T23:59:21.092Z,11.30
